Orenge 7 — JL6148 — position and weather

sailwx.info

Track history (hours):
 
Tides and Currents Weather Stations Pressure Air Temp Water Temp Dewpoint Dewpoint Depression Visibility Wind Speed Wind Dir Waves Ship Positions

Orenge 7

Last reported at 2015-Aug-27 20:22 UTC. Time now 2015-Aug-29 00:20 UTC.
Position N 34°35' E 135°15'.

Length 163 m; draft 4.9 m.

Type: Passenger vessel. MMSI: 431500186.

Date/timePositionNaut miles runAvg speedWind from/ knotsBaromVisibWave heightAir tempDewpointWater temp
2015-Aug-27 20:22N 34°35' E 135°15'14 0.5
2015-Aug-26 14:33N 34°37' E 134°58'1717.0
2015-Aug-26 13:33N 34°36' E 135°19'6 2.5
2015-Aug-26 11:11N 34°37' E 135°26'0 0.0
2015-Aug-26 09:29N 34°37' E 135°26'0 0.0
2015-Aug-26 08:29N 34°37' E 135°26'0 0.0
2015-Aug-26 07:29N 34°37' E 135°26'0 0.0
2015-Aug-26 06:29N 34°37' E 135°26'0 0.0
2015-Aug-26 05:23N 34°37' E 135°26'0 0.0
2015-Aug-26 04:29N 34°37' E 135°26'0 0.0
2015-Aug-26 03:11N 34°37' E 135°26'0 0.0
2015-Aug-26 02:23N 34°37' E 135°26'0 0.0
2015-Aug-26 01:11N 34°37' E 135°26'0 0.0
2015-Aug-26 00:23N 34°37' E 135°26'0 0.0
2015-Aug-25 23:17N 34°37' E 135°26'0 0.0
2015-Aug-25 22:29N 34°37' E 135°26'0 0.0
2015-Aug-25 21:14N 34°37' E 135°26'5 7.9
2015-Aug-25 20:33N 34°36' E 135°19'1817.7
2015-Aug-25 19:34N 34°37' E 134°58'1 0.0
2015-Aug-24 14:32N 34°37' E 134°57'1818.4
2015-Aug-24 13:33N 34°37' E 135°19'6 1.9
2015-Aug-24 10:25N 34°37' E 135°26'0 0.0
2015-Aug-24 09:31N 34°37' E 135°26'0 0.0
2015-Aug-24 08:31N 34°37' E 135°26'0 0.0
2015-Aug-24 07:31N 34°37' E 135°26'0 0.0
2015-Aug-24 06:31N 34°37' E 135°26'0 0.0
2015-Aug-24 05:31N 34°37' E 135°26'0 0.0
2015-Aug-24 03:31N 34°37' E 135°26'0 0.0
2015-Aug-24 02:25N 34°37' E 135°26'0 0.0
2015-Aug-24 01:31N 34°37' E 135°26'0 0.0
2015-Aug-24 00:31N 34°37' E 135°26'0 0.0
2015-Aug-23 23:13N 34°37' E 135°26'0 0.0
2015-Aug-23 22:25N 34°37' E 135°26'0 0.0
2015-Aug-23 21:31N 34°37' E 135°26'5 5.1
2015-Aug-23 20:33N 34°36' E 135°20'1818.2
2015-Aug-23 19:33N 34°37' E 134°58'2 0.1
2015-Aug-22 14:34N 34°37' E 134°56'1818.4
2015-Aug-22 13:33N 34°36' E 135°18'6 5.4
2015-Aug-22 12:23N 34°37' E 135°26'0 0.0
2015-Aug-22 09:29N 34°37' E 135°26'0 0.0
2015-Aug-22 08:29N 34°37' E 135°26'0 0.0
2015-Aug-22 07:29N 34°37' E 135°26'0 0.0
2015-Aug-22 06:23N 34°37' E 135°26'0 0.0
2015-Aug-22 05:29N 34°37' E 135°26'0 0.0
2015-Aug-22 04:29N 34°37' E 135°26'0 0.0
2015-Aug-22 03:29N 34°37' E 135°26'0 0.0
2015-Aug-22 02:29N 34°37' E 135°26'0 0.0
2015-Aug-22 01:11N 34°37' E 135°26'0 0.0
2015-Aug-22 00:29N 34°37' E 135°26'0 0.0
2015-Aug-21 23:29N 34°37' E 135°26'0 0.0
2015-Aug-21 22:29N 34°37' E 135°26'0 0.0
2015-Aug-21 21:23N 34°37' E 135°26'5 5.9
2015-Aug-21 20:33N 34°36' E 135°20'1817.8
2015-Aug-21 19:33N 34°37' E 134°58'2 0.1
2015-Aug-20 14:33N 34°37' E 134°57'1818.5
2015-Aug-20 13:33N 34°36' E 135°19'6 4.7
2015-Aug-20 12:21N 34°37' E 135°26'0 0.0
2015-Aug-20 11:33N 34°37' E 135°26'0 0.0
2015-Aug-20 10:33N 34°37' E 135°26'0 0.0
2015-Aug-20 09:21N 34°37' E 135°26'0 0.0
2015-Aug-20 08:27N 34°37' E 135°26'0 0.0
2015-Aug-20 07:33N 34°37' E 135°26'0 0.0
2015-Aug-20 06:33N 34°37' E 135°26'0 0.0
2015-Aug-20 05:33N 34°37' E 135°26'0 0.0
2015-Aug-20 04:33N 34°37' E 135°26'0 0.0
2015-Aug-20 03:33N 34°37' E 135°26'0 0.0
2015-Aug-20 02:33N 34°37' E 135°26'0 0.0
2015-Aug-20 01:33N 34°37' E 135°26'0 0.0
2015-Aug-20 00:33N 34°37' E 135°26'0 0.0
2015-Aug-19 23:33N 34°37' E 135°26'0 0.0
2015-Aug-19 22:33N 34°37' E 135°26'0 0.0
2015-Aug-19 21:33N 34°37' E 135°26'6 6.0
2015-Aug-19 20:33N 34°35' E 135°19'1817.7
2015-Aug-19 19:33N 34°36' E 134°57'15 0.3
2015-Aug-17 20:23N 34°35' E 135°15'  
Track history (hours):
 
Tides and Currents Weather Stations Pressure Air Temp Water Temp Dewpoint Dewpoint Depression Visibility Wind Speed Wind Dir Waves Ship Positions

Orenge 7

Last reported at 2015-Aug-27 20:22 UTC. Time now 2015-Aug-29 00:20 UTC.
Position N 34°35' E 135°15'.

Length 163 m; draft 4.9 m.

Type: Passenger vessel. MMSI: 431500186.

Date/timePositionNaut miles runAvg speedWind from/ knotsBaromVisibWave heightAir tempDewpointWater temp
2015-Aug-27 20:22N 34°35' E 135°15'14 0.5
2015-Aug-26 14:33N 34°37' E 134°58'1717.0
2015-Aug-26 13:33N 34°36' E 135°19'6 2.5
2015-Aug-26 11:11N 34°37' E 135°26'0 0.0
2015-Aug-26 09:29N 34°37' E 135°26'0 0.0
2015-Aug-26 08:29N 34°37' E 135°26'0 0.0
2015-Aug-26 07:29N 34°37' E 135°26'0 0.0
2015-Aug-26 06:29N 34°37' E 135°26'0 0.0
2015-Aug-26 05:23N 34°37' E 135°26'0 0.0
2015-Aug-26 04:29N 34°37' E 135°26'0 0.0
2015-Aug-26 03:11N 34°37' E 135°26'0 0.0
2015-Aug-26 02:23N 34°37' E 135°26'0 0.0
2015-Aug-26 01:11N 34°37' E 135°26'0 0.0
2015-Aug-26 00:23N 34°37' E 135°26'0 0.0
2015-Aug-25 23:17N 34°37' E 135°26'0 0.0
2015-Aug-25 22:29N 34°37' E 135°26'0 0.0
2015-Aug-25 21:14N 34°37' E 135°26'5 7.9
2015-Aug-25 20:33N 34°36' E 135°19'1817.7
2015-Aug-25 19:34N 34°37' E 134°58'1 0.0
2015-Aug-24 14:32N 34°37' E 134°57'1818.4
2015-Aug-24 13:33N 34°37' E 135°19'6 1.9
2015-Aug-24 10:25N 34°37' E 135°26'0 0.0
2015-Aug-24 09:31N 34°37' E 135°26'0 0.0
2015-Aug-24 08:31N 34°37' E 135°26'0 0.0
2015-Aug-24 07:31N 34°37' E 135°26'0 0.0
2015-Aug-24 06:31N 34°37' E 135°26'0 0.0
2015-Aug-24 05:31N 34°37' E 135°26'0 0.0
2015-Aug-24 03:31N 34°37' E 135°26'0 0.0
2015-Aug-24 02:25N 34°37' E 135°26'0 0.0
2015-Aug-24 01:31N 34°37' E 135°26'0 0.0
2015-Aug-24 00:31N 34°37' E 135°26'0 0.0
2015-Aug-23 23:13N 34°37' E 135°26'0 0.0
2015-Aug-23 22:25N 34°37' E 135°26'0 0.0
2015-Aug-23 21:31N 34°37' E 135°26'5 5.1
2015-Aug-23 20:33N 34°36' E 135°20'1818.2
2015-Aug-23 19:33N 34°37' E 134°58'2 0.1
2015-Aug-22 14:34N 34°37' E 134°56'1818.4
2015-Aug-22 13:33N 34°36' E 135°18'6 5.4
2015-Aug-22 12:23N 34°37' E 135°26'0 0.0
2015-Aug-22 09:29N 34°37' E 135°26'0 0.0
2015-Aug-22 08:29N 34°37' E 135°26'0 0.0
2015-Aug-22 07:29N 34°37' E 135°26'0 0.0
2015-Aug-22 06:23N 34°37' E 135°26'0 0.0
2015-Aug-22 05:29N 34°37' E 135°26'0 0.0
2015-Aug-22 04:29N 34°37' E 135°26'0 0.0
2015-Aug-22 03:29N 34°37' E 135°26'0 0.0
2015-Aug-22 02:29N 34°37' E 135°26'0 0.0
2015-Aug-22 01:11N 34°37' E 135°26'0 0.0
2015-Aug-22 00:29N 34°37' E 135°26'0 0.0
2015-Aug-21 23:29N 34°37' E 135°26'0 0.0
2015-Aug-21 22:29N 34°37' E 135°26'0 0.0
2015-Aug-21 21:23N 34°37' E 135°26'5 5.9
2015-Aug-21 20:33N 34°36' E 135°20'1817.8
2015-Aug-21 19:33N 34°37' E 134°58'2 0.1
2015-Aug-20 14:33N 34°37' E 134°57'1818.5
2015-Aug-20 13:33N 34°36' E 135°19'6 4.7
2015-Aug-20 12:21N 34°37' E 135°26'0 0.0
2015-Aug-20 11:33N 34°37' E 135°26'0 0.0
2015-Aug-20 10:33N 34°37' E 135°26'0 0.0
2015-Aug-20 09:21N 34°37' E 135°26'0 0.0
2015-Aug-20 08:27N 34°37' E 135°26'0 0.0
2015-Aug-20 07:33N 34°37' E 135°26'0 0.0
2015-Aug-20 06:33N 34°37' E 135°26'0 0.0
2015-Aug-20 05:33N 34°37' E 135°26'0 0.0
2015-Aug-20 04:33N 34°37' E 135°26'0 0.0
2015-Aug-20 03:33N 34°37' E 135°26'0 0.0
2015-Aug-20 02:33N 34°37' E 135°26'0 0.0
2015-Aug-20 01:33N 34°37' E 135°26'0 0.0
2015-Aug-20 00:33N 34°37' E 135°26'0 0.0
2015-Aug-19 23:33N 34°37' E 135°26'0 0.0
2015-Aug-19 22:33N 34°37' E 135°26'0 0.0
2015-Aug-19 21:33N 34°37' E 135°26'6 6.0
2015-Aug-19 20:33N 34°35' E 135°19'1817.7
2015-Aug-19 19:33N 34°36' E 134°57'15 0.3
2015-Aug-17 20:23N 34°35' E 135°15'  

Dump ship's entire track history